Time;durP1;ratioP1;P1;durP2;ratioP2;P2;SDS_P1;SDS_P2;PMS_P1;PMS_P2;Temp;Humidity;BMP_temperature;BMP_pressure;BME280_temperature;BME280_humidity;BME280_pressure;Samples;Min_cycle;Max_cycle;Signal;HPM_P1;HPM_P2
2023/03/03 00:01:35;;;;;;;;;;;;;;;;;;5095326;28;19955;-69
2023/03/03 00:04:01;;;;;;;;;;;;;;;;;;5096245;28;20309;-65
2023/03/03 00:06:29;;;;;;;;;;;;;;;;;;5095583;28;20068;-69
2023/03/03 00:08:55;;;;;;;;;;;;;;;;;;5077440;28;20362;-65
2023/03/03 00:11:21;;;;;;;;;;;;;;;;;;5095507;28;19961;-67
2023/03/03 00:13:46;;;;;;;;;;;;;;;;;;5095689;28;19977;-68
2023/03/03 00:16:13;;;;;;;;;;;;;;;;;;5095689;28;20070;-67
2023/03/03 00:18:38;;;;;;;;;;;;;;;;;;5096147;28;20054;-68
2023/03/03 00:21:04;;;;;;;;;;;;;;;;;;5095672;28;19953;-67
2023/03/03 00:23:30;;;;;;;;;;;;;;;;;;5095305;28;20411;-66
2023/03/03 00:25:56;;;;;;;;;;;;;;;;;;5095180;28;19982;-68
2023/03/03 00:28:22;;;;;;;;;;;;;;;;;;5095515;28;19990;-68
2023/03/03 00:30:49;;;;;;;;;;;;;;;;;;5095438;28;20312;-68
2023/03/03 00:33:14;;;;;;;;;;;;;;;;;;5096151;28;19956;-67
2023/03/03 00:35:40;;;;;;;;;;;;;;;;;;5095034;28;19954;-66
2023/03/03 00:38:06;;;;;;;;;;;;;;;;;;5095574;28;20432;-67
2023/03/03 00:40:32;;;;;;;;;;;;;;;;;;5094913;28;19991;-68
2023/03/03 00:42:58;;;;;;;;;;;;;;;;;;5095513;28;20291;-66
2023/03/03 00:45:24;;;;;;;;;;;;;;;;;;5095149;28;19963;-67
2023/03/03 00:47:50;;;;;;;;;;;;;;;;;;5095126;28;20421;-69
2023/03/03 00:50:16;;;;;;;;;;;;;;;;;;5094786;28;19997;-66
2023/03/03 00:52:42;;;;;;;;;;;;;;;;;;5095014;28;20046;-66
2023/03/03 00:55:08;;;;;;;;;;;;;;;;;;5094725;28;19957;-68
2023/03/03 00:57:34;;;;;;;;;;;;;;;;;;5095471;28;20019;-67
2023/03/03 01:00:01;;;;;;;;;;;;;;;;;;5094603;28;19960;-69
2023/03/03 01:02:27;;;;;;;;;;;;;;;;;;5076227;28;19963;-69
2023/03/03 01:04:55;;;;;;;;;;;;;;;;;;5094805;28;20057;-67
2023/03/03 01:07:21;;;;;;;;;;;;;;;;;;5094425;28;19971;-68
2023/03/03 01:09:47;;;;;;;;;;;;;;;;;;5094447;28;19951;-69
2023/03/03 01:12:12;;;;;;;;;;;;;;;;;;5094636;28;20024;-68
2023/03/03 01:14:38;;;;;;;;;;;;;;;;;;5093828;28;19974;-67
2023/03/03 01:17:04;;;;;;;;;;;;;;;;;;5094847;28;19956;-65
2023/03/03 01:19:30;;;;;;;;;;;;;;;;;;5095047;28;20391;-69
2023/03/03 01:21:56;;;;;;;;;;;;;;;;;;5094512;28;20082;-67
2023/03/03 01:24:22;;;;;;;;;;;;;;;;;;5094425;28;20424;-66
2023/03/03 01:26:48;;;;;;;;;;;;;;;;;;5094391;28;19977;-68
2023/03/03 01:29:14;;;;;;;;;;;;;;;;;;5094437;28;19954;-69
2023/03/03 01:31:40;;;;;;;;;;;;;;;;;;5094138;28;19954;-68
2023/03/03 01:34:06;;;;;;;;;;;;;;;;;;5094084;28;20481;-65
2023/03/03 01:36:32;;;;;;;;;;;;;;;;;;5093995;28;19952;-68
2023/03/03 01:38:57;;;;;;;;;;;;;;;;;;5094244;28;19974;-65
2023/03/03 01:41:23;;;;;;;;;;;;;;;;;;5093531;28;19989;-66
2023/03/03 01:43:49;;;;;;;;;;;;;;;;;;5093816;28;19963;-66
2023/03/03 01:46:15;;;;;;;;;;;;;;;;;;5094356;28;20015;-67
2023/03/03 01:48:41;;;;;;;;;;;;;;;;;;5093860;28;20044;-68
2023/03/03 01:51:07;;;;;;;;;;;;;;;;;;5094128;28;20419;-66
2023/03/03 01:53:33;;;;;;;;;;;;;;;;;;5093768;28;19954;-68
2023/03/03 01:55:59;;;;;;;;;;;;;;;;;;5094033;28;19983;-67
2023/03/03 01:58:25;;;;;;;;;;;;;;;;;;5093754;28;19966;-66
2023/03/03 02:00:50;;;;;;;;;;;;;;;;;;5093777;28;19954;-70
2023/03/03 02:03:16;;;;;;;;;;;;;;;;;;5075586;28;20373;-67
2023/03/03 02:05:42;;;;;;;;;;;;;;;;;;5093620;28;20020;-69
2023/03/03 02:08:08;;;;;;;;;;;;;;;;;;5094246;28;19980;-69
2023/03/03 02:10:34;;;;;;;;;;;;;;;;;;5093660;28;19954;-65
2023/03/03 02:13:00;;;;;;;;;;;;;;;;;;5093888;28;20005;-67
2023/03/03 02:15:26;;;;;;;;;;;;;;;;;;5093501;28;19970;-66
2023/03/03 02:17:52;;;;;;;;;;;;;;;;;;5093569;28;20013;-66
2023/03/03 02:20:18;;;;;;;;;;;;;;;;;;5093861;28;19954;-65
2023/03/03 02:22:44;;;;;;;;;;;;;;;;;;5093566;28;19961;-69
2023/03/03 02:25:09;;;;;;;;;;;;;;;;;;5095278;28;19998;-67
2023/03/03 02:27:35;;;;;;;;;;;;;;;;;;5097573;28;19965;-68
2023/03/03 02:30:01;;;;;;;;;;;;;;;;;;5097793;28;19954;-69
2023/03/03 02:32:27;;;;;;;;;;;;;;;;;;5097741;28;19981;-69
2023/03/03 02:34:53;;;;;;;;;;;;;;;;;;5097944;28;19991;-68
2023/03/03 02:37:19;;;;;;;;;;;;;;;;;;5097348;28;19958;-66
2023/03/03 02:39:45;;;;;;;;;;;;;;;;;;5097082;28;19992;-68
2023/03/03 02:42:11;;;;;;;;;;;;;;;;;;5097313;28;19958;-66
2023/03/03 02:44:37;;;;;;;;;;;;;;;;;;5097255;28;19962;-66
2023/03/03 02:47:02;;;;;;;;;;;;;;;;;;5097150;28;20545;-67
2023/03/03 02:49:29;;;;;;;;;;;;;;;;;;5097385;28;20049;-69
2023/03/03 02:51:55;;;;;;;;;;;;;;;;;;5097332;28;19956;-65
2023/03/03 02:54:21;;;;;;;;;;;;;;;;;;5097357;28;20325;-67
2023/03/03 02:56:47;;;;;;;;;;;;;;;;;;5096937;28;20326;-66
2023/03/03 02:59:13;;;;;;;;;;;;;;;;;;5097260;28;19953;-68
2023/03/03 03:01:39;;;;;;;;;;;;;;;;;;5097174;28;19962;-66
2023/03/03 03:04:05;;;;;;;;;;;;;;;;;;5097113;28;20298;-65
2023/03/03 03:06:31;;;;;;;;;;;;;;;;;;5096739;28;20355;-67
2023/03/03 03:08:57;;;;;;;;;;;;;;;;;;5097026;28;19954;-67
2023/03/03 03:11:23;;;;;;;;;;;;;;;;;;5096995;28;19953;-68
2023/03/03 03:13:49;;;;;;;;;;;;;;;;;;5096580;28;20002;-68
2023/03/03 03:16:14;;;;;;;;;;;;;;;;;;5096925;28;19953;-67
2023/03/03 03:18:40;;;;;;;;;;;;;;;;;;5096861;28;19954;-66
2023/03/03 03:21:06;;;;;;;;;;;;;;;;;;5096561;28;19963;-68
2023/03/03 03:23:32;;;;;;;;;;;;;;;;;;5096819;28;19954;-66
2023/03/03 03:25:58;;;;;;;;;;;;;;;;;;5096382;28;19981;-66
2023/03/03 03:28:24;;;;;;;;;;;;;;;;;;5096710;28;19954;-68
2023/03/03 03:30:50;;;;;;;;;;;;;;;;;;5096629;28;19961;-67
2023/03/03 03:33:16;;;;;;;;;;;;;;;;;;5096910;28;19953;-66
2023/03/03 03:35:44;;;;;;;;;;;;;;;;;;5096527;28;19955;-66
2023/03/03 03:38:10;;;;;;;;;;;;;;;;;;5077338;28;20331;-67
2023/03/03 03:40:36;;;;;;;;;;;;;;;;;;5095964;28;20081;-66
2023/03/03 03:43:02;;;;;;;;;;;;;;;;;;5096085;28;19961;-68
2023/03/03 03:45:28;;;;;;;;;;;;;;;;;;5096256;28;20044;-65
2023/03/03 03:47:54;;;;;;;;;;;;;;;;;;5096302;28;20330;-67
2023/03/03 03:50:20;;;;;;;;;;;;;;;;;;5096504;28;19953;-65
2023/03/03 03:52:46;;;;;;;;;;;;;;;;;;5095897;28;20002;-68
2023/03/03 03:55:12;;;;;;;;;;;;;;;;;;5096430;28;20388;-68
2023/03/03 03:57:38;;;;;;;;;;;;;;;;;;5096156;28;19956;-67
2023/03/03 04:00:04;;;;;;;;;;;;;;;;;;5096356;28;19955;-64
2023/03/03 04:02:30;;;;;;;;;;;;;;;;;;5096275;28;19956;-66
2023/03/03 04:04:56;;;;;;;;;;;;;;;;;;5095983;28;19958;-65
2023/03/03 04:07:21;;;;;;;;;;;;;;;;;;5095607;28;20441;-69
2023/03/03 04:09:47;;;;;;;;;;;;;;;;;;5095892;28;19958;-66
2023/03/03 04:12:13;;;;;;;;;;;;;;;;;;5095552;28;19961;-69
2023/03/03 04:14:39;;;;;;;;;;;;;;;;;;5095581;28;19973;-65
2023/03/03 04:17:05;;;;;;;;;;;;;;;;;;5095677;28;20403;-67
2023/03/03 04:19:31;;;;;;;;;;;;;;;;;;5095436;28;19954;-65
2023/03/03 04:21:57;;;;;;;;;;;;;;;;;;5095905;28;20465;-67
2023/03/03 04:24:23;;;;;;;;;;;;;;;;;;5095579;28;19979;-66
2023/03/03 04:26:49;;;;;;;;;;;;;;;;;;5095434;28;20418;-69
2023/03/03 04:29:14;;;;;;;;;;;;;;;;;;5095207;28;19954;-67
2023/03/03 04:31:40;;;;;;;;;;;;;;;;;;5095731;28;20421;-69
2023/03/03 04:34:06;;;;;;;;;;;;;;;;;;5095104;28;19954;-68
2023/03/03 04:36:32;;;;;;;;;;;;;;;;;;5095093;28;19998;-67
2023/03/03 04:38:58;;;;;;;;;;;;;;;;;;5094991;28;20432;-69
2023/03/03 04:41:24;;;;;;;;;;;;;;;;;;5094547;28;19997;-67
2023/03/03 04:43:50;;;;;;;;;;;;;;;;;;5095208;28;19954;-68
2023/03/03 04:46:16;;;;;;;;;;;;;;;;;;5094802;28;20018;-65
2023/03/03 04:48:43;;;;;;;;;;;;;;;;;;5095392;28;19954;-66
2023/03/03 04:51:09;;;;;;;;;;;;;;;;;;5076394;28;19965;-69
2023/03/03 04:53:37;;;;;;;;;;;;;;;;;;5094771;28;19953;-64
2023/03/03 04:56:03;;;;;;;;;;;;;;;;;;5094945;28;20373;-66
2023/03/03 04:58:29;;;;;;;;;;;;;;;;;;5094666;28;19979;-68
2023/03/03 05:00:55;;;;;;;;;;;;;;;;;;5094602;28;20419;-66
2023/03/03 05:03:21;;;;;;;;;;;;;;;;;;5094584;28;19952;-68
2023/03/03 05:05:47;;;;;;;;;;;;;;;;;;5094499;28;19973;-68
2023/03/03 05:08:13;;;;;;;;;;;;;;;;;;5094793;28;19957;-67
2023/03/03 05:10:39;;;;;;;;;;;;;;;;;;5095013;28;19964;-66
2023/03/03 05:13:05;;;;;;;;;;;;;;;;;;5094465;28;20011;-67
2023/03/03 05:15:31;;;;;;;;;;;;;;;;;;5095099;28;20407;-69
2023/03/03 05:17:57;;;;;;;;;;;;;;;;;;5094369;28;19954;-66
2023/03/03 05:20:22;;;;;;;;;;;;;;;;;;5094343;28;19961;-64
2023/03/03 05:22:48;;;;;;;;;;;;;;;;;;5094587;28;19953;-68
2023/03/03 05:25:14;;;;;;;;;;;;;;;;;;5094223;28;19976;-68
2023/03/03 05:27:41;;;;;;;;;;;;;;;;;;5094355;28;20015;-68
2023/03/03 05:30:07;;;;;;;;;;;;;;;;;;5094139;28;19954;-69
2023/03/03 05:32:33;;;;;;;;;;;;;;;;;;5094101;28;19953;-65
2023/03/03 05:34:59;;;;;;;;;;;;;;;;;;5094342;28;19959;-66
2023/03/03 05:37:25;;;;;;;;;;;;;;;;;;5094016;28;20170;-68
2023/03/03 05:39:51;;;;;;;;;;;;;;;;;;5093829;28;19995;-68
2023/03/03 05:42:17;;;;;;;;;;;;;;;;;;5094517;28;19962;-67
2023/03/03 05:44:43;;;;;;;;;;;;;;;;;;5093912;28;19990;-68
2023/03/03 05:47:09;;;;;;;;;;;;;;;;;;5094117;28;20299;-66
2023/03/03 05:49:34;;;;;;;;;;;;;;;;;;5093907;28;19960;-68
2023/03/03 05:52:00;;;;;;;;;;;;;;;;;;5094126;28;19952;-65
2023/03/03 05:54:26;;;;;;;;;;;;;;;;;;5094627;28;19958;-69
2023/03/03 05:56:52;;;;;;;;;;;;;;;;;;5093796;28;19960;-66
2023/03/03 05:59:18;;;;;;;;;;;;;;;;;;5093906;28;20042;-65
2023/03/03 06:01:44;;;;;;;;;;;;;;;;;;5093777;28;19959;-66
2023/03/03 06:04:10;;;;;;;;;;;;;;;;;;5093747;28;19952;-69
2023/03/03 06:06:36;;;;;;;;;;;;;;;;;;5093878;28;19982;-67
2023/03/03 06:09:02;;;;;;;;;;;;;;;;;;5093967;28;19961;-67
2023/03/03 06:11:28;;;;;;;;;;;;;;;;;;5093934;28;20331;-67
2023/03/03 06:13:54;;;;;;;;;;;;;;;;;;5093590;28;19968;-66
2023/03/03 06:16:20;;;;;;;;;;;;;;;;;;5093574;28;20436;-65
2023/03/03 06:18:46;;;;;;;;;;;;;;;;;;5094189;28;19960;-64
2023/03/03 06:21:12;;;;;;;;;;;;;;;;;;5093835;28;20386;-67
2023/03/03 06:23:37;;;;;;;;;;;;;;;;;;5093792;28;20342;-66
2023/03/03 06:26:04;;;;;;;;;;;;;;;;;;5093968;28;20019;-68
2023/03/03 06:28:29;;;;;;;;;;;;;;;;;;5093558;28;19957;-66
2023/03/03 06:30:55;;;;;;;;;;;;;;;;;;5093513;28;19954;-66
2023/03/03 06:33:21;;;;;;;;;;;;;;;;;;5093449;28;20457;-66
2023/03/03 06:35:47;;;;;;;;;;;;;;;;;;5093489;28;20303;-67
2023/03/03 06:38:13;;;;;;;;;;;;;;;;;;5093473;28;20397;-65
2023/03/03 06:40:39;;;;;;;;;;;;;;;;;;5093171;28;20089;-68
2023/03/03 06:43:05;;;;;;;;;;;;;;;;;;5093603;28;19960;-67
2023/03/03 06:45:31;;;;;;;;;;;;;;;;;;5093245;28;19961;-66
2023/03/03 06:47:57;;;;;;;;;;;;;;;;;;5093867;28;20476;-69
2023/03/03 06:50:22;;;;;;;;;;;;;;;;;;5093304;28;19954;-68
2023/03/03 06:52:48;;;;;;;;;;;;;;;;;;5093827;28;20314;-67
2023/03/03 06:55:14;;;;;;;;;;;;;;;;;;5093514;28;20014;-67
2023/03/03 06:57:40;;;;;;;;;;;;;;;;;;5093224;28;19953;-66
2023/03/03 07:00:06;;;;;;;;;;;;;;;;;;5093233;28;20004;-69
2023/03/03 07:02:32;;;;;;;;;;;;;;;;;;5093511;28;19955;-67
2023/03/03 07:04:58;;;;;;;;;;;;;;;;;;5093190;28;19956;-69
2023/03/03 07:07:24;;;;;;;;;;;;;;;;;;5093327;28;19971;-66
2023/03/03 07:09:49;;;;;;;;;;;;;;;;;;5093128;28;19956;-67
2023/03/03 07:12:15;;;;;;;;;;;;;;;;;;5094571;28;19957;-68
2023/03/03 07:14:41;;;;;;;;;;;;;;;;;;5096744;28;19977;-68
2023/03/03 07:17:07;;;;;;;;;;;;;;;;;;5096957;28;19971;-67
2023/03/03 07:19:33;;;;;;;;;;;;;;;;;;5096597;28;20002;-68
2023/03/03 07:21:59;;;;;;;;;;;;;;;;;;5096595;28;20065;-68
2023/03/03 07:24:26;;;;;;;;;;;;;;;;;;5096807;28;19953;-68
2023/03/03 07:26:52;;;;;;;;;;;;;;;;;;5096271;28;20461;-65
2023/03/03 07:29:18;;;;;;;;;;;;;;;;;;5096417;28;19955;-66
2023/03/03 07:31:44;;;;;;;;;;;;;;;;;;5096605;28;20010;-67
2023/03/03 07:34:10;;;;;;;;;;;;;;;;;;5096320;28;19961;-68
2023/03/03 07:36:36;;;;;;;;;;;;;;;;;;5096540;28;19951;-68
2023/03/03 07:39:04;;;;;;;;;;;;;;;;;;5096181;28;19971;-69
2023/03/03 07:41:30;;;;;;;;;;;;;;;;;;5095741;28;20004;-70
2023/03/03 07:43:56;;;;;;;;;;;;;;;;;;5096170;28;19959;-68
2023/03/03 07:46:22;;;;;;;;;;;;;;;;;;5095957;28;20071;-71
2023/03/03 07:48:48;;;;;;;;;;;;;;;;;;5096318;28;19956;-69
2023/03/03 07:51:14;;;;;;;;;;;;;;;;;;5095987;28;19952;-71
2023/03/03 07:53:40;;;;;;;;;;;;;;;;;;5077791;28;19984;-69
2023/03/03 07:56:05;;;;;;;;;;;;;;;;;;5096199;28;19991;-71
2023/03/03 07:58:31;;;;;;;;;;;;;;;;;;5096404;28;19952;-72
2023/03/03 08:00:57;;;;;;;;;;;;;;;;;;5095790;28;19950;-71
2023/03/03 08:03:23;;;;;;;;;;;;;;;;;;5096316;28;20455;-70
2023/03/03 08:05:49;;;;;;;;;;;;;;;;;;5095915;28;20021;-67
2023/03/03 08:08:16;;;;;;;;;;;;;;;;;;5095938;28;20317;-67
2023/03/03 08:10:42;;;;;;;;;;;;;;;;;;5095904;28;19953;-66
2023/03/03 08:13:08;;;;;;;;;;;;;;;;;;5095841;28;20494;-67
2023/03/03 08:15:34;;;;;;;;;;;;;;;;;;5095423;28;19970;-68
2023/03/03 08:17:59;;;;;;;;;;;;;;;;;;5095764;28;19958;-69
2023/03/03 08:20:25;;;;;;;;;;;;;;;;;;5095694;28;19960;-68
2023/03/03 08:22:51;;;;;;;;;;;;;;;;;;5095082;28;19952;-68
2023/03/03 08:25:17;;;;;;;;;;;;;;;;;;5095904;28;20457;-67
2023/03/03 08:27:43;;;;;;;;;;;;;;;;;;5095269;28;19975;-71
2023/03/03 08:30:09;;;;;;;;;;;;;;;;;;5095774;28;20460;-66
2023/03/03 08:32:35;;;;;;;;;;;;;;;;;;5095459;28;19954;-68
2023/03/03 08:35:01;;;;;;;;;;;;;;;;;;5095114;28;19955;-67
2023/03/03 08:37:26;;;;;;;;;;;;;;;;;;5095152;28;19997;-68
2023/03/03 08:39:52;;;;;;;;;;;;;;;;;;5073183;28;20001;-70
2023/03/03 08:42:18;;;;;;;;;;;;;;;;;;5074779;28;19961;-69
2023/03/03 08:44:44;;;;;;;;;;;;;;;;;;5075009;28;19956;-69
2023/03/03 08:47:10;;;;;;;;;;;;;;;;;;5074961;28;19978;-69
2023/03/03 08:49:36;;;;;;;;;;;;;;;;;;5075001;28;19991;-71
2023/03/03 08:52:02;;;;;;;;;;;;;;;;;;5075903;28;20016;-68
2023/03/03 08:54:28;;;;;;;;;;;;;;;;;;5074531;28;20334;-70
2023/03/03 08:56:54;;;;;;;;;;;;;;;;;;5074524;28;20308;-70
2023/03/03 08:59:21;;;;;;;;;;;;;;;;;;5074690;28;19964;-67
2023/03/03 09:01:47;;;;;;;;;;;;;;;;;;5074415;28;20004;-70
2023/03/03 09:04:12;;;;;;;;;;;;;;;;;;5074630;28;20037;-70
2023/03/03 09:06:38;;;;;;;;;;;;;;;;;;5074260;28;20438;-71
2023/03/03 09:09:04;;;;;;;;;;;;;;;;;;5074294;28;19954;-70
2023/03/03 09:11:31;;;;;;;;;;;;;;;;;;5074520;28;19959;-70
2023/03/03 09:13:57;;;;;;;;;;;;;;;;;;5072850;28;20016;-72
2023/03/03 09:16:23;;;;;;;;;;;;;;;;;;5074433;28;20397;-70
2023/03/03 09:18:49;;;;;;;;;;;;;;;;;;5074395;28;19984;-68
2023/03/03 09:21:14;;;;;;;;;;;;;;;;;;5074325;28;19960;-69
2023/03/03 09:23:40;;;;;;;;;;;;;;;;;;5074029;28;20417;-71
2023/03/03 09:26:06;;;;;;;;;;;;;;;;;;5074258;28;19974;-70
2023/03/03 09:28:32;;;;;;;;;;;;;;;;;;5074036;28;20335;-69
2023/03/03 09:30:58;;;;;;;;;;;;;;;;;;5073971;28;19956;-70
2023/03/03 09:33:24;;;;;;;;;;;;;;;;;;5074181;28;19954;-70
2023/03/03 09:35:50;;;;;;;;;;;;;;;;;;5073181;28;20057;-70
2023/03/03 09:38:17;;;;;;;;;;;;;;;;;;5074156;28;19954;-68
2023/03/03 09:40:42;;;;;;;;;;;;;;;;;;5087012;28;19990;-68
2023/03/03 09:43:08;;;;;;;;;;;;;;;;;;5094276;28;20022;-70
2023/03/03 09:45:34;;;;;;;;;;;;;;;;;;5094149;28;19988;-69
2023/03/03 09:48:00;;;;;;;;;;;;;;;;;;5094145;28;20048;-71
2023/03/03 09:50:26;;;;;;;;;;;;;;;;;;5093889;28;20506;-70
2023/03/03 09:52:52;;;;;;;;;;;;;;;;;;5093891;28;19951;-71
2023/03/03 09:55:18;;;;;;;;;;;;;;;;;;5093806;28;19952;-70
2023/03/03 09:57:44;;;;;;;;;;;;;;;;;;5093819;28;19961;-69
2023/03/03 10:00:10;;;;;;;;;;;;;;;;;;5093805;28;19958;-71
2023/03/03 10:02:36;;;;;;;;;;;;;;;;;;5094008;28;19977;-70
2023/03/03 10:05:02;;;;;;;;;;;;;;;;;;5093992;28;19953;-71
2023/03/03 10:07:28;;;;;;;;;;;;;;;;;;5093674;28;20018;-70
2023/03/03 10:09:54;;;;;;;;;;;;;;;;;;5093918;28;20053;-70
2023/03/03 10:12:21;;;;;;;;;;;;;;;;;;5094189;28;20281;-71
2023/03/03 10:14:47;;;;;;;;;;;;;;;;;;5093640;28;19970;-71
2023/03/03 10:17:13;;;;;;;;;;;;;;;;;;5093884;28;19953;-70
2023/03/03 10:19:39;;;;;;;;;;;;;;;;;;5094139;28;20399;-70
2023/03/03 10:22:05;;;;;;;;;;;;;;;;;;5093602;28;20003;-68
2023/03/03 10:24:30;;;;;;;;;;;;;;;;;;5093838;28;19954;-69
2023/03/03 10:26:56;;;;;;;;;;;;;;;;;;5093767;28;19975;-70
2023/03/03 10:29:25;;;;;;;;;;;;;;;;;;5093559;28;19990;-69
2023/03/03 10:31:51;;;;;;;;;;;;;;;;;;5094102;28;19962;-70
2023/03/03 10:34:17;;;;;;;;;;;;;;;;;;5093452;28;20403;-69
2023/03/03 10:36:42;;;;;;;;;;;;;;;;;;5093466;28;19954;-70
2023/03/03 10:39:08;;;;;;;;;;;;;;;;;;5093487;28;20053;-70
2023/03/03 10:41:34;;;;;;;;;;;;;;;;;;5093652;28;20345;-70
2023/03/03 10:44:00;;;;;;;;;;;;;;;;;;5093386;28;19953;-70
2023/03/03 10:46:26;;;;;;;;;;;;;;;;;;5095661;28;20075;-69
2023/03/03 10:48:52;;;;;;;;;;;;;;;;;;5097432;28;19958;-69
2023/03/03 10:51:18;;;;;;;;;;;;;;;;;;5097807;28;19961;-70
2023/03/03 10:53:44;;;;;;;;;;;;;;;;;;5097142;28;19962;-71
2023/03/03 10:56:10;;;;;;;;;;;;;;;;;;5097602;28;20044;-70
2023/03/03 10:58:36;;;;;;;;;;;;;;;;;;5096966;28;20325;-70
2023/03/03 11:01:02;;;;;;;;;;;;;;;;;;5096994;28;19960;-70
2023/03/03 11:03:28;;;;;;;;;;;;;;;;;;5097205;28;19958;-70
2023/03/03 11:05:53;;;;;;;;;;;;;;;;;;5097036;28;19978;-69
2023/03/03 11:08:19;;;;;;;;;;;;;;;;;;5097156;28;19958;-70
2023/03/03 11:10:45;;;;;;;;;;;;;;;;;;5097085;28;19952;-71
2023/03/03 11:13:12;;;;;;;;;;;;;;;;;;5096984;28;20311;-70
2023/03/03 11:15:38;;;;;;;;;;;;;;;;;;5078517;28;19967;-70
2023/03/03 11:18:04;;;;;;;;;;;;;;;;;;5096667;28;20014;-72
2023/03/03 11:20:30;;;;;;;;;;;;;;;;;;5096583;28;19962;-70
2023/03/03 11:22:56;;;;;;;;;;;;;;;;;;5096568;28;20409;-70
2023/03/03 11:25:21;;;;;;;;;;;;;;;;;;5096504;28;19952;-70
2023/03/03 11:27:47;;;;;;;;;;;;;;;;;;5096658;28;20307;-68
2023/03/03 11:30:15;;;;;;;;;;;;;;;;;;5096657;28;19999;-70
2023/03/03 11:32:41;;;;;;;;;;;;;;;;;;5096379;28;19991;-71
2023/03/03 11:35:07;;;;;;;;;;;;;;;;;;5096360;28;19954;-70
2023/03/03 11:37:33;;;;;;;;;;;;;;;;;;5096280;28;19950;-71
2023/03/03 11:39:59;;;;;;;;;;;;;;;;;;5096043;28;19990;-69
2023/03/03 11:42:25;;;;;;;;;;;;;;;;;;5096212;28;20057;-71
2023/03/03 11:44:50;;;;;;;;;;;;;;;;;;5096401;28;19953;-69
2023/03/03 11:47:17;;;;;;;;;;;;;;;;;;5077921;28;19979;-69
2023/03/03 11:49:43;;;;;;;;;;;;;;;;;;5096105;28;19962;-69
2023/03/03 11:52:08;;;;;;;;;;;;;;;;;;5096285;28;19952;-71
2023/03/03 11:54:34;;;;;;;;;;;;;;;;;;5096207;28;19954;-71
2023/03/03 11:57:00;;;;;;;;;;;;;;;;;;5095629;28;20011;-70
2023/03/03 11:59:28;;;;;;;;;;;;;;;;;;5095743;28;19957;-69
2023/03/03 12:01:54;;;;;;;;;;;;;;;;;;5096375;28;19961;-70
2023/03/03 12:04:20;;;;;;;;;;;;;;;;;;5096072;28;19958;-71
2023/03/03 12:06:46;;;;;;;;;;;;;;;;;;5096165;28;19975;-69
2023/03/03 12:09:12;;;;;;;;;;;;;;;;;;5095944;28;19953;-71
2023/03/03 12:11:37;;;;;;;;;;;;;;;;;;5095630;28;19952;-71
2023/03/03 12:14:03;;;;;;;;;;;;;;;;;;5096307;28;20467;-69
2023/03/03 12:16:29;;;;;;;;;;;;;;;;;;5095531;28;20048;-70
2023/03/03 12:18:55;;;;;;;;;;;;;;;;;;5096028;28;20288;-72
2023/03/03 12:21:21;;;;;;;;;;;;;;;;;;5095678;28;19960;-72
2023/03/03 12:23:47;;;;;;;;;;;;;;;;;;5095951;28;19952;-71
2023/03/03 12:26:13;;;;;;;;;;;;;;;;;;5095269;28;19974;-70
2023/03/03 12:28:39;;;;;;;;;;;;;;;;;;5095292;28;19959;-68
2023/03/03 12:31:05;;;;;;;;;;;;;;;;;;5095793;28;20460;-69
2023/03/03 12:33:31;;;;;;;;;;;;;;;;;;5095181;28;19953;-70
2023/03/03 12:35:57;;;;;;;;;;;;;;;;;;5095187;28;20390;-69
2023/03/03 12:38:23;;;;;;;;;;;;;;;;;;5095174;28;20417;-70
2023/03/03 12:40:50;;;;;;;;;;;;;;;;;;5094949;28;19990;-70
2023/03/03 12:43:17;;;;;;;;;;;;;;;;;;5095266;28;19956;-71
2023/03/03 12:45:43;;;;;;;;;;;;;;;;;;5094917;28;19957;-70
2023/03/03 12:48:09;;;;;;;;;;;;;;;;;;5095201;28;20380;-71
2023/03/03 12:50:35;;;;;;;;;;;;;;;;;;5095165;28;19954;-71
2023/03/03 12:53:01;;;;;;;;;;;;;;;;;;5095065;28;20040;-69
2023/03/03 12:55:27;;;;;;;;;;;;;;;;;;5095093;28;19954;-70
2023/03/03 12:57:52;;;;;;;;;;;;;;;;;;5094732;28;19954;-68
2023/03/03 13:00:18;;;;;;;;;;;;;;;;;;5095273;28;20460;-70
2023/03/03 13:02:44;;;;;;;;;;;;;;;;;;5094977;28;19992;-69
2023/03/03 13:05:10;;;;;;;;;;;;;;;;;;5094608;28;19955;-69
2023/03/03 13:07:36;;;;;;;;;;;;;;;;;;5094797;28;19974;-67
2023/03/03 13:10:03;;;;;;;;;;;;;;;;;;5093583;28;19961;-73
2023/03/03 13:12:29;;;;;;;;;;;;;;;;;;5094809;28;20000;-71
2023/03/03 13:14:55;;;;;;;;;;;;;;;;;;5094512;28;20468;-71
2023/03/03 13:17:21;;;;;;;;;;;;;;;;;;5094378;28;20307;-70
2023/03/03 13:19:48;;;;;;;;;;;;;;;;;;5094388;28;19959;-71
2023/03/03 13:22:13;;;;;;;;;;;;;;;;;;5093982;28;19955;-70
2023/03/03 13:24:41;;;;;;;;;;;;;;;;;;5094314;28;19965;-70
2023/03/03 13:27:07;;;;;;;;;;;;;;;;;;5094403;28;20000;-72
2023/03/03 13:29:33;;;;;;;;;;;;;;;;;;5094774;28;20433;-70
2023/03/03 13:31:59;;;;;;;;;;;;;;;;;;5094199;28;19953;-70
2023/03/03 13:34:25;;;;;;;;;;;;;;;;;;5094393;28;20000;-70
2023/03/03 13:36:51;;;;;;;;;;;;;;;;;;5094415;28;19998;-70
2023/03/03 13:39:17;;;;;;;;;;;;;;;;;;5093925;28;19959;-71
2023/03/03 13:41:43;;;;;;;;;;;;;;;;;;5094382;28;19961;-69
2023/03/03 13:44:09;;;;;;;;;;;;;;;;;;5093970;28;19974;-69
2023/03/03 13:46:35;;;;;;;;;;;;;;;;;;5094167;28;19981;-70
2023/03/03 13:49:00;;;;;;;;;;;;;;;;;;5093906;28;20013;-70
2023/03/03 13:51:26;;;;;;;;;;;;;;;;;;5093901;28;19954;-69
2023/03/03 13:53:52;;;;;;;;;;;;;;;;;;5094158;28;20079;-69
2023/03/03 13:56:18;;;;;;;;;;;;;;;;;;5093855;28;20035;-71
2023/03/03 13:58:44;;;;;;;;;;;;;;;;;;5093801;28;20067;-71
2023/03/03 14:01:10;;;;;;;;;;;;;;;;;;5093765;28;19958;-70
2023/03/03 14:03:36;;;;;;;;;;;;;;;;;;5094020;28;19953;-71
2023/03/03 14:06:02;;;;;;;;;;;;;;;;;;5093958;28;19980;-70
2023/03/03 14:08:28;;;;;;;;;;;;;;;;;;5094299;28;19958;-70
2023/03/03 14:10:53;;;;;;;;;;;;;;;;;;5093668;28;19952;-70
2023/03/03 14:13:19;;;;;;;;;;;;;;;;;;5093867;28;20063;-70
2023/03/03 14:15:45;;;;;;;;;;;;;;;;;;5094194;28;20015;-70
2023/03/03 14:18:11;;;;;;;;;;;;;;;;;;5094185;28;20048;-70
2023/03/03 14:20:37;;;;;;;;;;;;;;;;;;5094128;28;19953;-70
2023/03/03 14:23:03;;;;;;;;;;;;;;;;;;5098271;28;20413;-72
2023/03/03 14:25:29;;;;;;;;;;;;;;;;;;5097949;28;19961;-70
2023/03/03 14:27:55;;;;;;;;;;;;;;;;;;5097607;28;20445;-70
2023/03/03 14:30:21;;;;;;;;;;;;;;;;;;5097632;28;20047;-70
2023/03/03 14:32:46;;;;;;;;;;;;;;;;;;5098342;28;20317;-70
2023/03/03 14:35:12;;;;;;;;;;;;;;;;;;5097531;28;19954;-69
2023/03/03 14:37:38;;;;;;;;;;;;;;;;;;5097763;28;19955;-70
2023/03/03 14:40:04;;;;;;;;;;;;;;;;;;5097225;28;20044;-71
2023/03/03 14:42:32;;;;;;;;;;;;;;;;;;5097334;28;20030;-69
2023/03/03 14:44:58;;;;;;;;;;;;;;;;;;5097618;28;20055;-71
2023/03/03 14:47:25;;;;;;;;;;;;;;;;;;5097494;28;20024;-72
2023/03/03 14:49:51;;;;;;;;;;;;;;;;;;5097161;28;20426;-70
2023/03/03 14:52:17;;;;;;;;;;;;;;;;;;5097740;28;19961;-68
2023/03/03 14:54:44;;;;;;;;;;;;;;;;;;5097176;28;19961;-70
2023/03/03 14:57:10;;;;;;;;;;;;;;;;;;5097377;28;19957;-73
2023/03/03 14:59:36;;;;;;;;;;;;;;;;;;5097078;28;19961;-68
2023/03/03 15:02:02;;;;;;;;;;;;;;;;;;5097305;28;19955;-70
2023/03/03 15:04:29;;;;;;;;;;;;;;;;;;5096908;28;20423;-71
2023/03/03 15:06:56;;;;;;;;;;;;;;;;;;5096836;28;19972;-70
2023/03/03 15:09:22;;;;;;;;;;;;;;;;;;5097101;28;20329;-70
2023/03/03 15:11:48;;;;;;;;;;;;;;;;;;5097111;28;19957;-71
2023/03/03 15:14:14;;;;;;;;;;;;;;;;;;5096896;28;20018;-68
2023/03/03 15:16:43;;;;;;;;;;;;;;;;;;5097300;28;20409;-68
2023/03/03 15:19:10;;;;;;;;;;;;;;;;;;5096683;28;19960;-71
2023/03/03 15:21:36;;;;;;;;;;;;;;;;;;5096936;28;19954;-69
2023/03/03 15:24:02;;;;;;;;;;;;;;;;;;5096600;28;19980;-70
2023/03/03 15:26:28;;;;;;;;;;;;;;;;;;5096473;28;20353;-71
2023/03/03 15:28:54;;;;;;;;;;;;;;;;;;5096510;28;19954;-70
2023/03/03 15:31:20;;;;;;;;;;;;;;;;;;5096683;28;20005;-68
2023/03/03 15:33:45;;;;;;;;;;;;;;;;;;5095846;28;20040;-70
2023/03/03 15:36:11;;;;;;;;;;;;;;;;;;5096322;28;19954;-72
2023/03/03 15:38:38;;;;;;;;;;;;;;;;;;5096885;28;19958;-70
2023/03/03 15:41:03;;;;;;;;;;;;;;;;;;5096159;28;20527;-70
2023/03/03 15:43:29;;;;;;;;;;;;;;;;;;5096744;28;20004;-69
2023/03/03 15:45:56;;;;;;;;;;;;;;;;;;5096051;28;19960;-70
2023/03/03 15:48:22;;;;;;;;;;;;;;;;;;5096067;28;20461;-71
2023/03/03 15:50:49;;;;;;;;;;;;;;;;;;5096072;28;19961;-71
2023/03/03 15:53:14;;;;;;;;;;;;;;;;;;5096301;28;20044;-69
2023/03/03 15:55:40;;;;;;;;;;;;;;;;;;5095899;28;20460;-71
2023/03/03 15:58:06;;;;;;;;;;;;;;;;;;5095915;28;19953;-70
2023/03/03 16:00:32;;;;;;;;;;;;;;;;;;5096459;28;20287;-70
2023/03/03 16:02:59;;;;;;;;;;;;;;;;;;5095882;28;19960;-70
2023/03/03 16:05:25;;;;;;;;;;;;;;;;;;5096136;28;20320;-69
2023/03/03 16:07:52;;;;;;;;;;;;;;;;;;5095877;28;19978;-69
2023/03/03 16:10:17;;;;;;;;;;;;;;;;;;5095731;28;20436;-71
2023/03/03 16:12:43;;;;;;;;;;;;;;;;;;5096201;28;20003;-70
2023/03/03 16:15:09;;;;;;;;;;;;;;;;;;5095517;28;20069;-69
2023/03/03 16:17:35;;;;;;;;;;;;;;;;;;5095542;28;19953;-70
2023/03/03 16:20:01;;;;;;;;;;;;;;;;;;5095500;28;19954;-69
2023/03/03 16:22:27;;;;;;;;;;;;;;;;;;5095768;28;19953;-69
2023/03/03 16:24:53;;;;;;;;;;;;;;;;;;5095691;28;19954;-71
2023/03/03 16:27:19;;;;;;;;;;;;;;;;;;5095306;28;19980;-70
2023/03/03 16:29:46;;;;;;;;;;;;;;;;;;5095609;28;19956;-71
2023/03/03 16:32:12;;;;;;;;;;;;;;;;;;5095327;28;19961;-69
2023/03/03 16:34:37;;;;;;;;;;;;;;;;;;5095224;28;19954;-69
2023/03/03 16:37:03;;;;;;;;;;;;;;;;;;5095694;28;20389;-70